createdAt,value
2019-05-17T00:02:20.296Z,93105.58
2019-05-17T00:04:52.978Z,93107.96
2019-05-17T00:07:27.319Z,93095.03
2019-05-17T00:10:00.134Z,93093.97
2019-05-17T00:12:33.004Z,93095.56
2019-05-17T00:15:07.146Z,93086.27
2019-05-17T00:17:40.199Z,93086.00
2019-05-17T00:20:12.913Z,93082.91
2019-05-17T00:22:47.143Z,93071.78
2019-05-17T00:25:20.353Z,93068.59
2019-05-17T00:27:53.240Z,93067.55
2019-05-17T00:30:26.537Z,93064.39
2019-05-17T00:33:00.538Z,93066.75
2019-05-17T00:35:37.472Z,93067.02
2019-05-17T00:38:08.864Z,93064.18
2019-05-17T00:40:42.183Z,93063.66
2019-05-17T00:43:16.879Z,93059.98
2019-05-17T00:45:50.684Z,93059.44
2019-05-17T00:48:23.478Z,93062.38
2019-05-17T00:51:02.202Z,93049.95
2019-05-17T00:53:30.833Z,93052.03
2019-05-17T00:56:03.573Z,93043.80
2019-05-17T00:58:37.023Z,93042.17
2019-05-17T01:01:10.017Z,93047.73
2019-05-17T01:03:42.763Z,93044.83
2019-05-17T01:06:16.932Z,93047.73
2019-05-17T01:09:00.894Z,93040.92
2019-05-17T01:11:26.959Z,93042.03
2019-05-17T01:13:59.513Z,93040.44
2019-05-17T01:16:32.273Z,93048.06
2019-05-17T01:19:06.797Z,93039.86
2019-05-17T01:21:39.641Z,93047.81
2019-05-17T01:24:12.603Z,93042.55
2019-05-17T01:26:46.850Z,93042.80
2019-05-17T01:29:19.804Z,93040.92
2019-05-17T01:31:52.618Z,93041.19
2019-05-17T01:34:27.218Z,93043.05
2019-05-17T01:36:59.974Z,93037.99
2019-05-17T01:39:33.589Z,93042.23
2019-05-17T01:42:06.901Z,93040.12
2019-05-17T01:44:40.064Z,93035.63
2019-05-17T01:47:12.933Z,93035.63
2019-05-17T01:49:46.931Z,93033.00
2019-05-17T01:52:19.884Z,93028.02
2019-05-17T01:54:52.765Z,93032.78
2019-05-17T01:57:27.399Z,93027.75
2019-05-17T02:00:00.793Z,93018.74
2019-05-17T02:02:38.355Z,93022.70
2019-05-17T02:05:11.143Z,93027.17
2019-05-17T02:07:46.384Z,93027.98
2019-05-17T02:10:18.497Z,93022.25
2019-05-17T02:12:51.159Z,93023.11
2019-05-17T02:15:23.993Z,93023.86
2019-05-17T02:17:57.377Z,93025.13
2019-05-17T02:20:30.638Z,93022.20
2019-05-17T02:23:03.644Z,93020.67
2019-05-17T02:25:37.059Z,93015.87
2019-05-17T02:28:12.202Z,93013.44
2019-05-17T02:30:45.125Z,93015.30
2019-05-17T02:33:18.000Z,93012.94
2019-05-17T02:35:53.659Z,93014.49
2019-05-17T02:38:26.305Z,93015.28
2019-05-17T02:40:59.210Z,93010.77
2019-05-17T02:43:33.481Z,93019.20
2019-05-17T02:46:07.089Z,93013.13
2019-05-17T02:48:42.513Z,93011.81
2019-05-17T02:51:14.442Z,93005.17
2019-05-17T02:53:47.363Z,93009.41
2019-05-17T02:56:22.864Z,93003.34
2019-05-17T02:58:54.778Z,93003.66
2019-05-17T03:01:27.640Z,93006.85
2019-05-17T03:04:03.572Z,92997.28
2019-05-17T03:06:35.023Z,93001.77
2019-05-17T03:09:08.359Z,92998.63
2019-05-17T03:11:42.897Z,92998.33
2019-05-17T03:14:16.379Z,93000.70
2019-05-17T03:16:49.234Z,93001.23
2019-05-17T03:19:23.579Z,92997.50
2019-05-17T03:21:57.078Z,92991.19
2019-05-17T03:24:33.052Z,92991.45
2019-05-17T03:27:04.366Z,92989.34
2019-05-17T03:29:37.244Z,92989.87
2019-05-17T03:32:16.822Z,92984.58
2019-05-17T03:34:45.130Z,92989.39
2019-05-17T03:37:18.309Z,92988.27
2019-05-17T03:39:53.593Z,92987.26
2019-05-17T03:42:26.610Z,92988.25
2019-05-17T03:45:02.582Z,92991.77
2019-05-17T03:47:33.864Z,92993.08
2019-05-17T03:50:07.073Z,92993.06
2019-05-17T03:52:39.988Z,92998.88
2019-05-17T03:55:13.340Z,93005.23
2019-05-17T03:57:46.632Z,93005.23
2019-05-17T04:00:23.225Z,93003.37
2019-05-17T04:02:54.641Z,93001.22
2019-05-17T04:05:27.900Z,93007.33
2019-05-17T04:08:03.500Z,93004.91
2019-05-17T04:10:34.900Z,93011.28
2019-05-17T04:13:07.823Z,93007.37
2019-05-17T04:15:43.333Z,93001.85
2019-05-17T04:18:15.221Z,93006.88
2019-05-17T04:20:47.985Z,93005.34
2019-05-17T04:23:23.303Z,93002.42
2019-05-17T04:25:55.152Z,93009.03
2019-05-17T04:28:28.113Z,93010.94
2019-05-17T04:31:02.833Z,93008.54
2019-05-17T04:33:35.539Z,93003.79
2019-05-17T04:36:08.283Z,93008.25
2019-05-17T04:38:43.562Z,93002.94
2019-05-17T04:41:15.838Z,93003.22
2019-05-17T04:43:48.764Z,93013.30
2019-05-17T04:46:23.539Z,93008.05
2019-05-17T04:48:56.475Z,93011.47
2019-05-17T04:51:32.296Z,93011.64
2019-05-17T04:54:05.750Z,93015.59
2019-05-17T04:56:42.429Z,93020.67
2019-05-17T04:59:14.059Z,93023.86
2019-05-17T05:01:47.479Z,93023.80
2019-05-17T05:04:22.604Z,93016.38
2019-05-17T05:06:54.796Z,93018.50
2019-05-17T05:09:27.895Z,93022.16
2019-05-17T05:12:05.043Z,93023.20
2019-05-17T05:14:35.239Z,93027.64
2019-05-17T05:17:07.969Z,93029.91
2019-05-17T05:19:42.242Z,93026.95
2019-05-17T05:22:17.528Z,93033.51
2019-05-17T05:24:49.775Z,93034.53
2019-05-17T05:27:22.633Z,93030.11
2019-05-17T05:29:55.383Z,93028.77
2019-05-17T05:32:28.138Z,93035.91
2019-05-17T05:35:03.189Z,93040.67
2019-05-17T05:37:36.160Z,93044.63
2019-05-17T05:40:09.024Z,93047.31
2019-05-17T05:42:42.643Z,93046.83
2019-05-17T05:45:16.115Z,93045.77
2019-05-17T05:47:49.238Z,93047.08
2019-05-17T05:50:22.038Z,93050.96
2019-05-17T05:52:54.700Z,93047.73
2019-05-17T05:55:28.079Z,93050.67
2019-05-17T05:58:03.014Z,93052.30
2019-05-17T06:00:35.334Z,93052.30
2019-05-17T06:03:08.448Z,93058.95
2019-05-17T06:05:42.263Z,93056.75
2019-05-17T06:08:15.488Z,93060.77
2019-05-17T06:10:48.793Z,93056.09
2019-05-17T06:13:21.945Z,93057.17
2019-05-17T06:15:54.759Z,93057.13
2019-05-17T06:18:27.659Z,93063.15
2019-05-17T06:21:02.731Z,93063.25
2019-05-17T06:23:35.178Z,93060.47
2019-05-17T06:26:08.348Z,93065.83
2019-05-17T06:28:42.516Z,93068.64
2019-05-17T06:31:15.796Z,93072.55
2019-05-17T06:33:49.030Z,93070.67
2019-05-17T06:36:22.349Z,93069.31
2019-05-17T06:38:55.088Z,93063.59
2019-05-17T06:41:27.944Z,93065.46
2019-05-17T06:44:02.922Z,93064.39
2019-05-17T06:46:35.697Z,93068.20
2019-05-17T06:49:08.828Z,93066.78
2019-05-17T06:51:42.625Z,93067.20
2019-05-17T06:54:15.915Z,93067.23
2019-05-17T06:56:48.873Z,93064.97
2019-05-17T06:59:21.843Z,93070.14
2019-05-17T07:01:54.650Z,93076.29
2019-05-17T07:04:27.328Z,93070.89
2019-05-17T07:07:20.547Z,93078.88
2019-05-17T07:09:52.452Z,93075.53
2019-05-17T07:12:25.329Z,93079.66
2019-05-17T07:14:58.479Z,93072.23
2019-05-17T07:17:32.203Z,93078.14
2019-05-17T07:20:04.904Z,93068.45
2019-05-17T07:22:40.468Z,93065.98
2019-05-17T07:25:12.294Z,93064.91
2019-05-17T07:27:46.096Z,93062.91
2019-05-17T07:30:19.555Z,93069.52
2019-05-17T07:32:52.503Z,93069.34
2019-05-17T07:35:25.388Z,93070.36
2019-05-17T07:37:59.584Z,93070.78
2019-05-17T07:40:32.503Z,93065.92
2019-05-17T07:43:10.417Z,93066.47
2019-05-17T07:45:40.403Z,93068.32
2019-05-17T07:48:13.609Z,93070.20
2019-05-17T07:50:46.361Z,93070.19
2019-05-17T07:53:20.143Z,93073.78
2019-05-17T07:55:53.574Z,93072.51
2019-05-17T07:58:26.398Z,93075.18
2019-05-17T08:01:01.560Z,93071.78
2019-05-17T08:03:33.733Z,93073.16
2019-05-17T08:06:06.990Z,93077.52
2019-05-17T08:08:40.903Z,93076.84
2019-05-17T08:11:14.495Z,93082.02
2019-05-17T08:13:47.354Z,93082.88
2019-05-17T08:16:20.764Z,93080.67
2019-05-17T08:18:53.484Z,93081.56
2019-05-17T08:21:26.185Z,93080.03
2019-05-17T08:24:00.266Z,93079.84
2019-05-17T08:26:33.563Z,93081.64
2019-05-17T08:29:06.284Z,93078.62
2019-05-17T08:31:40.382Z,93084.30
2019-05-17T08:34:13.714Z,93084.23
2019-05-17T08:36:46.384Z,93082.66
2019-05-17T08:39:19.898Z,93076.62
2019-05-17T08:41:53.030Z,93082.03
2019-05-17T08:44:25.805Z,93088.44
2019-05-17T08:46:59.473Z,93079.50
2019-05-17T08:49:32.858Z,93080.50
2019-05-17T08:52:05.594Z,93080.75
2019-05-17T08:54:42.653Z,93085.86
2019-05-17T08:57:13.424Z,93085.84
2019-05-17T08:59:46.197Z,93083.08
2019-05-17T09:02:19.902Z,93076.42
2019-05-17T09:04:54.154Z,93080.35
2019-05-17T09:07:29.388Z,93080.50
2019-05-17T09:10:02.050Z,93083.00
2019-05-17T09:12:35.204Z,93080.23
2019-05-17T09:15:10.054Z,93080.31
2019-05-17T09:17:42.924Z,93078.88
2019-05-17T09:20:15.888Z,93078.75
2019-05-17T09:22:51.078Z,93083.02
2019-05-17T09:25:24.178Z,93083.77
2019-05-17T09:27:56.929Z,93088.83
2019-05-17T09:30:31.347Z,93088.06
2019-05-17T09:33:04.403Z,93080.94
2019-05-17T09:35:37.325Z,93085.11
2019-05-17T09:38:10.459Z,93086.91
2019-05-17T09:40:43.603Z,93083.67
2019-05-17T09:43:20.303Z,93083.97
2019-05-17T09:45:52.400Z,93079.74
2019-05-17T09:48:25.884Z,93074.27
2019-05-17T09:51:00.029Z,93071.17
2019-05-17T09:53:33.179Z,93067.52
2019-05-17T09:56:06.050Z,93060.20
2019-05-17T09:58:39.655Z,93054.53
2019-05-17T10:01:12.773Z,93058.81
2019-05-17T10:03:45.563Z,93059.73
2019-05-17T10:06:20.053Z,93065.33
2019-05-17T10:08:53.086Z,93053.73
2019-05-17T10:11:25.823Z,93054.67
2019-05-17T10:14:01.243Z,93055.14
2019-05-17T10:16:33.889Z,93053.59
2019-05-17T10:19:06.624Z,93047.25
2019-05-17T10:21:40.020Z,93043.14
2019-05-17T10:24:13.414Z,93037.14
2019-05-17T10:26:46.114Z,93037.03
2019-05-17T10:29:18.997Z,93038.08
2019-05-17T10:31:51.697Z,93039.48
2019-05-17T10:34:24.623Z,93037.98
2019-05-17T10:36:57.488Z,93039.88
2019-05-17T10:39:30.295Z,93041.20
2019-05-17T10:42:03.007Z,93048.84
2019-05-17T10:44:44.368Z,93039.27
2019-05-17T10:47:10.443Z,93039.35
2019-05-17T10:49:43.410Z,93042.79
2019-05-17T10:52:16.233Z,93044.28
2019-05-17T10:54:48.965Z,93040.52
2019-05-17T10:57:22.629Z,93038.18
2019-05-17T10:59:55.405Z,93032.70
2019-05-17T11:02:30.413Z,93030.81
2019-05-17T11:05:02.701Z,93039.48
2019-05-17T11:07:35.584Z,93032.92
2019-05-17T11:10:11.177Z,93030.89
2019-05-17T11:12:42.943Z,93042.30
2019-05-17T11:15:15.728Z,93037.58
2019-05-17T11:17:48.468Z,93035.28
2019-05-17T11:20:21.363Z,93035.29
2019-05-17T11:22:54.113Z,93034.83
2019-05-17T11:25:28.371Z,93037.03
2019-05-17T11:28:01.429Z,93031.89
2019-05-17T11:30:34.197Z,93027.91
2019-05-17T11:33:06.936Z,93029.77
2019-05-17T11:35:39.888Z,93029.52
2019-05-17T11:38:12.788Z,93031.50
2019-05-17T11:40:45.713Z,93031.43
2019-05-17T11:43:18.876Z,93035.06
2019-05-17T11:45:52.168Z,93033.22
2019-05-17T11:48:25.098Z,93031.14
2019-05-17T11:50:57.992Z,93022.94
2019-05-17T11:53:30.808Z,93025.87
2019-05-17T11:56:04.252Z,93031.30
2019-05-17T11:58:37.399Z,93028.89
2019-05-17T12:01:10.204Z,93028.84
2019-05-17T12:03:43.343Z,93025.64
2019-05-17T12:06:16.636Z,93024.36
2019-05-17T12:08:49.517Z,93033.17
2019-05-17T12:11:22.211Z,93026.83
2019-05-17T12:13:55.608Z,93032.37
2019-05-17T12:16:28.691Z,93025.73
2019-05-17T12:19:01.403Z,93029.73
2019-05-17T12:21:34.189Z,93030.11
2019-05-17T12:24:07.003Z,93030.79
2019-05-17T12:26:39.825Z,93029.86
2019-05-17T12:29:13.214Z,93031.34
2019-05-17T12:31:45.878Z,93035.33
2019-05-17T12:34:18.839Z,93030.85
2019-05-17T12:36:51.496Z,93030.81
2019-05-17T12:39:24.884Z,93028.77
2019-05-17T12:41:57.722Z,93021.05
2019-05-17T12:44:31.004Z,93018.17
2019-05-17T12:47:03.754Z,93027.83
2019-05-17T12:49:36.674Z,93024.36
2019-05-17T12:52:09.564Z,93027.09
2019-05-17T12:54:42.940Z,93025.66
2019-05-17T12:57:15.671Z,93025.39
2019-05-17T12:59:48.441Z,93016.16
2019-05-17T13:02:21.714Z,93018.11
2019-05-17T13:04:54.634Z,93016.54
2019-05-17T13:07:28.040Z,93022.70
2019-05-17T13:10:01.016Z,93018.05
2019-05-17T13:12:33.974Z,93019.33
2019-05-17T13:15:06.839Z,93017.08
2019-05-17T13:17:39.659Z,93018.04
2019-05-17T13:20:12.550Z,93016.39
2019-05-17T13:22:45.324Z,93021.61
2019-05-17T13:25:18.609Z,93014.94
2019-05-17T13:27:51.909Z,93015.95
2019-05-17T13:30:25.082Z,93009.69
2019-05-17T13:32:58.537Z,93012.52
2019-05-17T13:35:31.845Z,93012.37
2019-05-17T13:38:04.954Z,93011.48
2019-05-17T13:40:39.907Z,93005.38
2019-05-17T13:43:12.421Z,93011.14
2019-05-17T13:45:45.344Z,93008.38
2019-05-17T13:48:18.194Z,93001.31
2019-05-17T13:50:52.268Z,93008.28
2019-05-17T13:56:33.915Z,93010.84
2019-05-17T13:59:06.698Z,93005.48
2019-05-17T14:01:40.045Z,93003.64
2019-05-17T14:04:12.780Z,93001.88
2019-05-17T14:06:45.479Z,93002.94
2019-05-17T14:09:18.530Z,93005.52
2019-05-17T14:11:51.419Z,93000.00
2019-05-17T14:14:24.523Z,92992.91
2019-05-17T14:16:57.242Z,92995.67
2019-05-17T14:19:29.973Z,92996.72
2019-05-17T14:22:02.766Z,92992.10
2019-05-17T14:24:35.504Z,92995.42
2019-05-17T14:27:08.745Z,92997.22
2019-05-17T14:29:41.579Z,92993.64
2019-05-17T14:32:15.004Z,92996.78
2019-05-17T14:34:48.084Z,92999.25
2019-05-17T14:37:20.973Z,93004.65
2019-05-17T14:39:54.315Z,93003.72
2019-05-17T14:42:27.473Z,93000.42
2019-05-17T14:45:00.419Z,93005.13
2019-05-17T14:47:33.273Z,93007.25
2019-05-17T14:50:06.124Z,93004.14
2019-05-17T14:52:38.933Z,93004.02
2019-05-17T14:55:11.703Z,93016.26
2019-05-17T14:57:44.528Z,93011.78
2019-05-17T15:00:17.988Z,93011.23
2019-05-17T15:02:50.717Z,93003.98
2019-05-17T15:05:24.443Z,93004.03
2019-05-17T15:07:57.738Z,93004.33
2019-05-17T15:10:30.969Z,93006.28
2019-05-17T15:13:03.814Z,93010.86
2019-05-17T15:15:36.619Z,93001.80
2019-05-17T15:18:10.196Z,93004.59
2019-05-17T15:20:44.264Z,92999.30
2019-05-17T15:23:17.491Z,92995.06
2019-05-17T15:25:50.365Z,92992.89
2019-05-17T15:28:23.265Z,92987.41
2019-05-17T15:30:56.134Z,92986.49
2019-05-17T15:33:28.919Z,92982.63
2019-05-17T15:36:01.728Z,92980.02
2019-05-17T15:38:34.521Z,92980.19
2019-05-17T15:41:07.484Z,92978.62
2019-05-17T15:43:40.764Z,92978.66
2019-05-17T15:46:13.714Z,92975.85
2019-05-17T15:48:46.546Z,92974.12
2019-05-17T15:51:19.992Z,92973.27
2019-05-17T15:53:52.923Z,92969.92
2019-05-17T15:56:25.678Z,92976.94
2019-05-17T15:58:58.453Z,92970.30
2019-05-17T16:01:31.178Z,92972.01
2019-05-17T16:04:04.077Z,92968.19
2019-05-17T16:06:37.082Z,92968.42
2019-05-17T16:09:09.884Z,92968.86
2019-05-17T16:11:42.763Z,92970.11
2019-05-17T16:14:15.625Z,92970.80
2019-05-17T16:16:48.474Z,92959.37
2019-05-17T16:19:21.383Z,92961.05
2019-05-17T16:21:54.118Z,92957.11
2019-05-17T16:24:27.159Z,92955.56
2019-05-17T16:27:00.102Z,92953.19
2019-05-17T16:29:33.040Z,92959.47
2019-05-17T16:32:06.393Z,92948.54
2019-05-17T16:34:39.353Z,92950.84
2019-05-17T16:37:12.420Z,92945.93
2019-05-17T16:39:45.190Z,92952.77
2019-05-17T16:42:17.873Z,92950.47
2019-05-17T16:44:50.736Z,92946.32
2019-05-17T16:47:23.990Z,92950.25
2019-05-17T16:49:58.215Z,92947.89
2019-05-17T16:52:31.171Z,92949.09
2019-05-17T16:55:04.041Z,92950.67
2019-05-17T16:57:37.558Z,92950.45
2019-05-17T17:00:11.166Z,92954.58
2019-05-17T17:02:44.119Z,92955.88
2019-05-17T17:05:17.708Z,92952.42
2019-05-17T17:07:51.486Z,92952.69
2019-05-17T17:10:24.345Z,92942.80
2019-05-17T17:12:57.306Z,92954.91
2019-05-17T17:15:30.278Z,92956.22
2019-05-17T17:18:03.216Z,92955.64
2019-05-17T17:20:36.472Z,92952.50
2019-05-17T17:23:09.174Z,92959.14
2019-05-17T17:25:42.452Z,92960.22
2019-05-17T17:28:16.232Z,92962.09
2019-05-17T17:30:48.997Z,92963.03
2019-05-17T17:33:21.979Z,92960.56
2019-05-17T17:35:54.844Z,92958.78
2019-05-17T17:38:27.509Z,92955.84
2019-05-17T17:41:01.198Z,92959.44
2019-05-17T17:43:33.979Z,92962.19
2019-05-17T17:46:06.979Z,92961.26
2019-05-17T17:48:39.705Z,92959.81
2019-05-17T17:51:12.704Z,92959.41
2019-05-17T17:53:45.857Z,92966.24
2019-05-17T17:56:18.604Z,92969.41
2019-05-17T17:58:51.507Z,92969.81
2019-05-17T18:01:24.769Z,92970.61
2019-05-17T18:03:57.643Z,92965.88
2019-05-17T18:06:30.359Z,92968.54
2019-05-17T18:09:05.012Z,92969.83
2019-05-17T18:11:38.069Z,92971.34
2019-05-17T18:14:13.753Z,92973.44
2019-05-17T18:16:45.719Z,92975.12
2019-05-17T18:19:18.377Z,92971.64
2019-05-17T18:21:51.185Z,92975.55
2019-05-17T18:24:23.963Z,92972.64
2019-05-17T18:26:56.763Z,92968.95
2019-05-17T18:29:29.578Z,92978.91
2019-05-17T18:32:02.484Z,92977.23
2019-05-17T18:34:35.280Z,92985.27
2019-05-17T18:37:08.120Z,92980.87
2019-05-17T18:39:40.797Z,92979.33
2019-05-17T18:42:13.688Z,92984.88
2019-05-17T18:44:46.508Z,92984.39
2019-05-17T18:47:19.339Z,92986.09
2019-05-17T18:49:52.524Z,92991.26
2019-05-17T18:52:25.360Z,92989.00
2019-05-17T18:54:58.454Z,92993.05
2019-05-17T18:57:32.125Z,92992.16
2019-05-17T19:00:04.884Z,92998.89
2019-05-17T19:02:38.479Z,93005.02
2019-05-17T19:05:11.319Z,93009.59
2019-05-17T19:07:44.597Z,93015.55
2019-05-17T19:10:17.555Z,93016.48
2019-05-17T19:12:50.254Z,93012.29
2019-05-17T19:15:22.993Z,93018.26
2019-05-17T19:17:55.920Z,93018.67
2019-05-17T19:20:29.413Z,93020.22
2019-05-17T19:23:02.761Z,93022.80
2019-05-17T19:25:35.509Z,93023.00
2019-05-17T19:28:08.439Z,93023.00
2019-05-17T19:30:41.188Z,93027.03
2019-05-17T19:33:14.178Z,93032.38
2019-05-17T19:35:47.479Z,93030.64
2019-05-17T19:38:20.192Z,93031.21
2019-05-17T19:40:53.522Z,93027.73
2019-05-17T19:43:26.355Z,93029.88
2019-05-17T19:45:59.087Z,93021.42
2019-05-17T19:48:31.951Z,93025.76
2019-05-17T19:51:04.775Z,93029.59
2019-05-17T19:53:37.721Z,93030.38
2019-05-17T19:56:10.419Z,93027.37
2019-05-17T19:58:43.226Z,93027.97
2019-05-17T20:01:16.256Z,93025.92
2019-05-17T20:03:49.085Z,93017.59
2019-05-17T20:06:21.818Z,93023.46
2019-05-17T20:08:54.988Z,93019.55
2019-05-17T20:11:34.326Z,93021.51
2019-05-17T20:14:02.233Z,93024.12
2019-05-17T20:16:35.070Z,93022.70
2019-05-17T20:19:08.147Z,93029.05
2019-05-17T20:21:40.888Z,93034.00
2019-05-17T20:24:13.732Z,93038.03
2019-05-17T20:26:46.541Z,93035.35
2019-05-17T20:29:19.672Z,93029.27
2019-05-17T20:31:52.540Z,93032.98
2019-05-17T20:34:25.622Z,93036.80
2019-05-17T20:36:58.368Z,93034.91
2019-05-17T20:39:31.070Z,93039.61
2019-05-17T20:42:03.832Z,93037.47
2019-05-17T20:44:36.670Z,93040.97
2019-05-17T20:47:09.285Z,93038.98
2019-05-17T20:49:42.183Z,93048.34
2019-05-17T20:52:15.021Z,93046.89
2019-05-17T20:54:47.971Z,93041.66
2019-05-17T20:57:20.756Z,93041.27
2019-05-17T20:59:53.696Z,93050.16
2019-05-17T21:02:26.457Z,93048.46
2019-05-17T21:04:59.991Z,93042.64
2019-05-17T21:07:32.770Z,93044.05
2019-05-17T21:10:05.546Z,93048.34
2019-05-17T21:12:38.366Z,93044.66
2019-05-17T21:15:11.227Z,93049.34
2019-05-17T21:17:44.201Z,93051.38
2019-05-17T21:20:17.542Z,93048.84
2019-05-17T21:22:50.345Z,93052.31
2019-05-17T21:25:23.371Z,93052.62
2019-05-17T21:27:56.107Z,93050.83
2019-05-17T21:30:28.939Z,92994.02
2019-05-17T21:33:01.722Z,93052.55
2019-05-17T21:35:34.477Z,93049.95
2019-05-17T21:38:07.231Z,93058.61
2019-05-17T21:40:40.563Z,93053.55
2019-05-17T21:43:13.314Z,93052.85
2019-05-17T21:45:46.055Z,93054.85
2019-05-17T21:48:18.765Z,93051.38
2019-05-17T21:50:51.620Z,93049.74
2019-05-17T21:53:24.348Z,93050.86
2019-05-17T21:55:57.254Z,93052.44
2019-05-17T21:58:30.015Z,93045.84
2019-05-17T22:01:03.082Z,93052.64
2019-05-17T22:03:36.367Z,93052.86
2019-05-17T22:06:09.098Z,93052.36
2019-05-17T22:08:41.914Z,93049.95
2019-05-17T22:11:15.170Z,93048.27
2019-05-17T22:13:47.963Z,93040.52
2019-05-17T22:16:20.695Z,93043.14
2019-05-17T22:18:54.006Z,93044.09
2019-05-17T22:21:26.883Z,93042.31
2019-05-17T22:23:59.841Z,93042.23
2019-05-17T22:26:32.611Z,93040.89
2019-05-17T22:29:05.311Z,93034.23
2019-05-17T22:31:39.073Z,93032.09
2019-05-17T22:34:13.086Z,93039.67
2019-05-17T22:36:45.991Z,93040.53
2019-05-17T22:39:18.731Z,93038.71
2019-05-17T22:41:51.613Z,93044.97
2019-05-17T22:44:24.542Z,93039.38
2019-05-17T22:46:57.637Z,93040.38
2019-05-17T22:49:30.441Z,93037.81
2019-05-17T22:52:03.413Z,93031.92
2019-05-17T22:54:36.166Z,93033.25
2019-05-17T22:57:08.932Z,93032.81
2019-05-17T22:59:42.125Z,93031.97
2019-05-17T23:02:15.030Z,93023.72
2019-05-17T23:04:47.893Z,93034.56
2019-05-17T23:07:20.859Z,93028.96
2019-05-17T23:09:53.729Z,93026.42
2019-05-17T23:12:26.835Z,93023.52
2019-05-17T23:14:59.688Z,93024.28
2019-05-17T23:17:32.494Z,93023.03
2019-05-17T23:20:05.246Z,93018.75
2019-05-17T23:22:38.060Z,93013.20
2019-05-17T23:25:11.026Z,93013.45
2019-05-17T23:27:43.831Z,93012.05
2019-05-17T23:30:16.926Z,93010.19
2019-05-17T23:32:49.753Z,93007.80
2019-05-17T23:35:22.526Z,93004.11
2019-05-17T23:37:55.580Z,93009.31
2019-05-17T23:40:28.535Z,93011.43
2019-05-17T23:43:01.682Z,93012.61
2019-05-17T23:45:34.494Z,93007.91
2019-05-17T23:48:07.294Z,93009.23
2019-05-17T23:50:40.513Z,93005.15
2019-05-17T23:53:13.573Z,93003.29
2019-05-17T23:55:46.268Z,93002.78
2019-05-17T23:58:19.573Z,92994.05
